Time;durP1;ratioP1;P1;durP2;ratioP2;P2;SDS_P1;SDS_P2;PMS_P1;PMS_P2;Temp;Humidity;BMP_temperature;BMP_pressure;BME280_temperature;BME280_humidity;BME280_pressure;Samples;Min_cycle;Max_cycle;Signal;HPM_P1;HPM_P2
2024/02/16 00:01:00;;;;;;;7.68;2.33;;;;;;;;;;5071424;28;20032;-64
2024/02/16 00:03:27;;;;;;;4.65;2.15;;;;;;;;;;5071725;28;20020;-63
2024/02/16 00:05:53;;;;;;;9.88;2.17;;;;;;;;;;5065308;28;20417;-64
2024/02/16 00:08:20;;;;;;;7.47;2.00;;;;;;;;;;5075194;28;20101;-63
2024/02/16 00:10:46;;;;;;;9.70;2.95;;;;;;;;;;5072527;28;20028;-62
2024/02/16 00:13:12;;;;;;;6.80;1.65;;;;;;;;;;5072373;28;20031;-63
2024/02/16 00:15:38;;;;;;;7.65;2.47;;;;;;;;;;5065103;28;20093;-64
2024/02/16 00:18:04;;;;;;;9.50;1.80;;;;;;;;;;5072675;28;20028;-63
2024/02/16 00:20:31;;;;;;;8.55;2.88;;;;;;;;;;5072053;28;20035;-63
2024/02/16 00:22:57;;;;;;;8.63;3.30;;;;;;;;;;5068329;28;20055;-63
2024/02/16 00:25:23;;;;;;;7.97;2.50;;;;;;;;;;5066949;28;20071;-62
2024/02/16 00:27:52;;;;;;;5.53;1.90;;;;;;;;;;5070797;28;20549;-63
2024/02/16 00:30:18;;;;;;;5.57;2.05;;;;;;;;;;5071191;28;20032;-63
2024/02/16 00:32:47;;;;;;;12.60;2.13;;;;;;;;;;5072620;28;20028;-63
2024/02/16 00:35:16;;;;;;;8.77;1.98;;;;;;;;;;5065182;28;20036;-63
2024/02/16 00:37:42;;;;;;;5.05;1.73;;;;;;;;;;5071247;28;20036;-63
2024/02/16 00:40:08;;;;;;;4.38;1.63;;;;;;;;;;5072122;28;20961;-63
2024/02/16 00:42:34;;;;;;;3.40;1.77;;;;;;;;;;5069078;28;20100;-63
2024/02/16 00:45:00;;;;;;;5.25;2.28;;;;;;;;;;5069388;28;20106;-63
2024/02/16 00:47:27;;;;;;;3.35;1.58;;;;;;;;;;5067262;28;20481;-63
2024/02/16 00:49:53;;;;;;;8.43;2.08;;;;;;;;;;5068777;28;20569;-63
2024/02/16 00:52:19;;;;;;;7.00;2.00;;;;;;;;;;5063070;28;20563;-63
2024/02/16 00:54:46;;;;;;;8.05;2.47;;;;;;;;;;5066783;28;20035;-63
2024/02/16 00:57:14;;;;;;;7.18;2.03;;;;;;;;;;5070177;28;20104;-63
2024/02/16 00:59:40;;;;;;;3.60;1.98;;;;;;;;;;5074516;28;20511;-63
2024/02/16 01:02:06;;;;;;;5.35;1.60;;;;;;;;;;5068886;28;20024;-62
2024/02/16 01:04:33;;;;;;;5.28;1.95;;;;;;;;;;5067610;28;20028;-63
2024/02/16 01:06:59;;;;;;;6.43;2.25;;;;;;;;;;5070674;28;20052;-63
2024/02/16 01:09:24;;;;;;;5.35;2.00;;;;;;;;;;5070102;28;20028;-63
2024/02/16 01:11:50;;;;;;;3.88;1.63;;;;;;;;;;5069290;28;20505;-62
2024/02/16 01:14:16;;;;;;;3.05;1.42;;;;;;;;;;5069137;28;20091;-63
2024/02/16 01:16:42;;;;;;;5.15;2.20;;;;;;;;;;5066348;28;20021;-63
2024/02/16 01:19:09;;;;;;;7.45;2.20;;;;;;;;;;5072428;28;20064;-63
2024/02/16 01:21:35;;;;;;;2.60;1.73;;;;;;;;;;5066536;28;20024;-63
2024/02/16 01:24:01;;;;;;;4.20;1.92;;;;;;;;;;5068033;28;20082;-61
2024/02/16 01:26:28;;;;;;;5.88;2.00;;;;;;;;;;5067587;28;20497;-61
2024/02/16 01:28:54;;;;;;;3.35;1.30;;;;;;;;;;5074563;28;20029;-63
2024/02/16 01:31:20;;;;;;;6.20;1.70;;;;;;;;;;5070124;28;20016;-63
2024/02/16 01:33:46;;;;;;;4.97;1.60;;;;;;;;;;5065905;28;20028;-62
2024/02/16 01:36:12;;;;;;;3.60;1.58;;;;;;;;;;5069425;28;20082;-63
2024/02/16 01:38:38;;;;;;;5.07;1.30;;;;;;;;;;5069805;28;20021;-63
2024/02/16 01:41:04;;;;;;;9.63;2.33;;;;;;;;;;5069324;28;20043;-62
2024/02/16 01:43:30;;;;;;;3.63;1.20;;;;;;;;;;5070524;28;20032;-63
2024/02/16 01:45:58;;;;;;;2.70;1.42;;;;;;;;;;5067428;28;20379;-63
2024/02/16 01:48:25;;;;;;;4.97;1.58;;;;;;;;;;5065585;28;20100;-63
2024/02/16 01:50:52;;;;;;;5.45;1.50;;;;;;;;;;5070359;28;20016;-63
2024/02/16 01:53:18;;;;;;;2.97;1.60;;;;;;;;;;5065900;28;20418;-63
2024/02/16 01:55:45;;;;;;;6.07;2.03;;;;;;;;;;5067945;28;20453;-64
2024/02/16 01:58:11;;;;;;;3.78;1.73;;;;;;;;;;5070299;28;20056;-62
2024/02/16 02:00:37;;;;;;;5.57;1.95;;;;;;;;;;5065989;28;20517;-62
2024/02/16 02:03:04;;;;;;;3.63;1.65;;;;;;;;;;5066147;28;20028;-63
2024/02/16 02:05:30;;;;;;;2.70;1.52;;;;;;;;;;5064748;28;20442;-62
2024/02/16 02:07:55;;;;;;;5.10;2.25;;;;;;;;;;5060654;28;20076;-60
2024/02/16 02:10:22;;;;;;;4.47;1.90;;;;;;;;;;5069016;28;20078;-61
2024/02/16 02:12:48;;;;;;;5.28;1.80;;;;;;;;;;5072180;28;20042;-63
2024/02/16 02:15:15;;;;;;;5.82;1.80;;;;;;;;;;5067737;28;20122;-62
2024/02/16 02:17:41;;;;;;;5.43;1.83;;;;;;;;;;5069557;28;20567;-63
2024/02/16 02:20:10;;;;;;;6.13;2.03;;;;;;;;;;5069566;28;20025;-63
2024/02/16 02:22:36;;;;;;;5.57;2.30;;;;;;;;;;5070613;28;20021;-62
2024/02/16 02:25:02;;;;;;;6.30;1.92;;;;;;;;;;5070277;28;20032;-63
2024/02/16 02:27:28;;;;;;;7.35;1.80;;;;;;;;;;5067232;28;20032;-63
2024/02/16 02:29:54;;;;;;;3.42;2.03;;;;;;;;;;5071714;28;20039;-61
2024/02/16 02:32:20;;;;;;;2.75;1.55;;;;;;;;;;5066658;28;20047;-63
2024/02/16 02:34:46;;;;;;;2.17;1.52;;;;;;;;;;5067263;28;20028;-63
2024/02/16 02:37:12;;;;;;;6.22;1.83;;;;;;;;;;5062022;28;20029;-63
2024/02/16 02:39:38;;;;;;;5.10;2.35;;;;;;;;;;5065501;28;20033;-63
2024/02/16 02:42:04;;;;;;;6.57;1.65;;;;;;;;;;5066672;28;20101;-63
2024/02/16 02:44:31;;;;;;;8.23;1.90;;;;;;;;;;5051656;28;20025;-63
2024/02/16 02:46:57;;;;;;;4.03;1.75;;;;;;;;;;5065932;28;20602;-63
2024/02/16 02:49:23;;;;;;;2.88;1.70;;;;;;;;;;5069995;28;20032;-63
2024/02/16 02:51:49;;;;;;;4.07;1.73;;;;;;;;;;5052717;28;20050;-63
2024/02/16 02:54:15;;;;;;;6.20;1.63;;;;;;;;;;5065461;28;20029;-64
2024/02/16 02:56:41;;;;;;;5.32;1.92;;;;;;;;;;5068543;28;20020;-63
2024/02/16 02:59:07;;;;;;;3.08;1.40;;;;;;;;;;5051799;28;20036;-63
2024/02/16 03:01:34;;;;;;;6.43;1.92;;;;;;;;;;5065062;28;20500;-63
2024/02/16 03:04:00;;;;;;;4.50;1.30;;;;;;;;;;5065268;28;20028;-61
2024/02/16 03:06:27;;;;;;;9.65;2.72;;;;;;;;;;5065375;28;20013;-63
2024/02/16 03:08:53;;;;;;;3.33;1.70;;;;;;;;;;5063653;28;20045;-63
2024/02/16 03:11:19;;;;;;;4.68;1.88;;;;;;;;;;5065193;28;20051;-63
2024/02/16 03:13:45;;;;;;;5.15;1.80;;;;;;;;;;5067058;28;20012;-63
2024/02/16 03:16:11;;;;;;;11.70;3.40;;;;;;;;;;5070431;28;20107;-63
2024/02/16 03:18:37;;;;;;;10.63;2.00;;;;;;;;;;5067903;28;20044;-63
2024/02/16 03:21:03;;;;;;;9.98;2.65;;;;;;;;;;5067562;28;20037;-63
2024/02/16 03:23:29;;;;;;;5.18;1.73;;;;;;;;;;5063054;28;20630;-63
2024/02/16 03:25:55;;;;;;;8.32;2.47;;;;;;;;;;5069019;28;20024;-63
2024/02/16 03:28:21;;;;;;;4.97;1.77;;;;;;;;;;5066160;28;20032;-63
2024/02/16 03:30:47;;;;;;;7.28;1.95;;;;;;;;;;5065669;28;20029;-63
2024/02/16 03:33:13;;;;;;;15.73;2.20;;;;;;;;;;5065382;28;20021;-63
2024/02/16 03:35:40;;;;;;;6.65;2.42;;;;;;;;;;5069021;28;20037;-63
2024/02/16 03:38:06;;;;;;;6.57;1.95;;;;;;;;;;5064677;28;20031;-63
2024/02/16 03:40:32;;;;;;;6.88;2.10;;;;;;;;;;5066756;28;20166;-64
2024/02/16 03:42:58;;;;;;;6.10;2.17;;;;;;;;;;5071360;28;20024;-63
2024/02/16 03:45:24;;;;;;;7.20;2.05;;;;;;;;;;5066378;28;20123;-63
2024/02/16 03:47:52;;;;;;;6.03;2.05;;;;;;;;;;5067332;28;20368;-63
2024/02/16 03:50:18;;;;;;;8.15;2.60;;;;;;;;;;5067972;28;20039;-63
2024/02/16 03:52:44;;;;;;;5.90;3.13;;;;;;;;;;5065575;28;20024;-63
2024/02/16 03:55:10;;;;;;;4.85;2.03;;;;;;;;;;5068803;28;20073;-64
2024/02/16 03:57:36;;;;;;;7.85;2.30;;;;;;;;;;5063621;28;20036;-63
2024/02/16 04:00:05;;;;;;;6.35;2.15;;;;;;;;;;5066164;28;20030;-63
2024/02/16 04:02:31;;;;;;;8.85;2.63;;;;;;;;;;5062922;28;20510;-64
2024/02/16 04:04:57;;;;;;;6.13;2.05;;;;;;;;;;5070611;28;20028;-63
2024/02/16 04:07:23;;;;;;;5.55;1.98;;;;;;;;;;5068922;28;20028;-63
2024/02/16 04:09:49;;;;;;;10.85;2.35;;;;;;;;;;5070236;28;20084;-63
2024/02/16 04:12:15;;;;;;;3.40;2.08;;;;;;;;;;5067698;28;20040;-63
2024/02/16 04:14:42;;;;;;;9.10;2.45;;;;;;;;;;5069614;28;20036;-64
2024/02/16 04:17:08;;;;;;;12.02;2.17;;;;;;;;;;5072946;28;20103;-63
2024/02/16 04:19:34;;;;;;;10.85;2.22;;;;;;;;;;5071223;28;20021;-64
2024/02/16 04:22:00;;;;;;;5.65;2.13;;;;;;;;;;5071772;28;20710;-63
2024/02/16 04:24:26;;;;;;;13.93;2.60;;;;;;;;;;5069360;28;20546;-64
2024/02/16 04:26:52;;;;;;;11.50;2.45;;;;;;;;;;5068463;28;20391;-64
2024/02/16 04:29:18;;;;;;;4.25;2.03;;;;;;;;;;5073497;28;20032;-63
2024/02/16 04:31:46;;;;;;;12.10;2.03;;;;;;;;;;5072290;28;20430;-63
2024/02/16 04:34:12;;;;;;;6.22;2.10;;;;;;;;;;5074415;28;20027;-63
2024/02/16 04:36:38;;;;;;;8.38;2.78;;;;;;;;;;5069262;28;20028;-63
2024/02/16 04:39:04;;;;;;;6.68;2.83;;;;;;;;;;5065360;28;20035;-63
2024/02/16 04:41:30;;;;;;;8.77;2.58;;;;;;;;;;5067968;28;20102;-64
2024/02/16 04:43:56;;;;;;;7.30;2.42;;;;;;;;;;5074060;28;20402;-63
2024/02/16 04:46:22;;;;;;;9.82;2.58;;;;;;;;;;5071257;28;20044;-63
2024/02/16 04:48:48;;;;;;;10.68;2.70;;;;;;;;;;5067085;28;20036;-62
2024/02/16 04:51:14;;;;;;;4.72;1.92;;;;;;;;;;5069737;28;20063;-63
2024/02/16 04:53:40;;;;;;;4.00;2.20;;;;;;;;;;5069648;28;20024;-63
2024/02/16 04:56:06;;;;;;;6.00;2.53;;;;;;;;;;5068733;28;20063;-64
2024/02/16 04:58:32;;;;;;;6.22;2.40;;;;;;;;;;5070258;28;20033;-64
2024/02/16 05:00:58;;;;;;;4.00;2.10;;;;;;;;;;5069508;28;20031;-64
2024/02/16 05:03:24;;;;;;;6.15;2.17;;;;;;;;;;5069502;28;20085;-64
2024/02/16 05:05:52;;;;;;;8.45;2.53;;;;;;;;;;5065303;28;20394;-63
2024/02/16 05:08:18;;;;;;;8.70;1.73;;;;;;;;;;5067550;28;20412;-63
2024/02/16 05:10:44;;;;;;;6.43;2.05;;;;;;;;;;5078911;28;20112;-64
2024/02/16 05:13:11;;;;;;;10.23;2.60;;;;;;;;;;5073119;28;20090;-61
2024/02/16 05:15:37;;;;;;;8.00;2.50;;;;;;;;;;5063580;28;20513;-64
2024/02/16 05:18:03;;;;;;;7.05;1.85;;;;;;;;;;5068787;28;20076;-64
2024/02/16 05:20:29;;;;;;;6.43;2.72;;;;;;;;;;5068998;28;20032;-64
2024/02/16 05:22:56;;;;;;;6.30;2.78;;;;;;;;;;5069488;28;20048;-64
2024/02/16 05:25:22;;;;;;;8.23;2.53;;;;;;;;;;5068828;28;20365;-64
2024/02/16 05:27:48;;;;;;;15.55;3.40;;;;;;;;;;5070564;28;20028;-64
2024/02/16 05:30:15;;;;;;;4.60;2.25;;;;;;;;;;5051630;28;20051;-64
2024/02/16 05:32:41;;;;;;;8.70;2.67;;;;;;;;;;5072939;28;20550;-64
2024/02/16 05:35:11;;;;;;;5.47;2.40;;;;;;;;;;5069415;28;20402;-64
2024/02/16 05:37:44;;;;;;;5.43;2.38;;;;;;;;;;5065536;28;20039;-64
2024/02/16 05:40:22;;;;;;;11.93;2.83;;;;;;;;;;5066947;28;20056;-64
2024/02/16 05:42:48;;;;;;;6.70;2.33;;;;;;;;;;5063148;28;20494;-64
2024/02/16 05:45:17;;;;;;;6.47;2.38;;;;;;;;;;5071789;28;20063;-63
2024/02/16 05:47:45;;;;;;;4.57;2.50;;;;;;;;;;5070646;28;20085;-64
2024/02/16 05:50:11;;;;;;;6.55;2.72;;;;;;;;;;5069707;28;20040;-64
2024/02/16 05:52:37;;;;;;;12.07;3.13;;;;;;;;;;5068412;28;20521;-64
2024/02/16 05:55:04;;;;;;;9.30;2.17;;;;;;;;;;5070056;28;20035;-64
2024/02/16 05:57:30;;;;;;;8.85;2.47;;;;;;;;;;5068519;28;20055;-63
2024/02/16 05:59:56;;;;;;;8.32;2.33;;;;;;;;;;5067962;28;20454;-63
2024/02/16 06:02:25;;;;;;;8.48;2.10;;;;;;;;;;5069025;28;20043;-62
2024/02/16 06:04:51;;;;;;;6.03;2.55;;;;;;;;;;5063571;28;20032;-62
2024/02/16 06:07:17;;;;;;;8.30;2.50;;;;;;;;;;5067561;28;20028;-63
2024/02/16 06:09:43;;;;;;;3.95;1.90;;;;;;;;;;5064818;28;20032;-61
2024/02/16 06:12:09;;;;;;;5.28;2.25;;;;;;;;;;5067052;28;20029;-63
2024/02/16 06:14:39;;;;;;;9.38;2.47;;;;;;;;;;5070063;28;20566;-64
2024/02/16 06:17:05;;;;;;;7.90;2.25;;;;;;;;;;5067521;28;20043;-64
2024/02/16 06:19:31;;;;;;;9.45;2.80;;;;;;;;;;5065924;28;20099;-63
2024/02/16 06:21:57;;;;;;;8.77;2.63;;;;;;;;;;5065524;28;20107;-62
2024/02/16 06:24:24;;;;;;;11.55;2.78;;;;;;;;;;5065097;28;20020;-61
2024/02/16 06:26:51;;;;;;;6.18;2.30;;;;;;;;;;5068741;28;20034;-61
2024/02/16 06:29:17;;;;;;;7.72;2.20;;;;;;;;;;5069371;28;20031;-61
2024/02/16 06:31:43;;;;;;;9.93;2.72;;;;;;;;;;5066779;28;20028;-62
2024/02/16 06:34:09;;;;;;;8.00;2.50;;;;;;;;;;5053770;28;20090;-62
2024/02/16 06:36:35;;;;;;;3.35;2.08;;;;;;;;;;5067368;28;20051;-62
2024/02/16 06:39:01;;;;;;;5.85;2.15;;;;;;;;;;5068265;28;20108;-62
2024/02/16 06:41:27;;;;;;;5.68;2.38;;;;;;;;;;5064726;28;20342;-61
2024/02/16 06:43:53;;;;;;;5.97;2.38;;;;;;;;;;5068221;28;20029;-61
2024/02/16 06:46:19;;;;;;;7.53;2.45;;;;;;;;;;5068846;28;20052;-61
2024/02/16 06:48:45;;;;;;;9.43;3.63;;;;;;;;;;5069676;28;20042;-61
2024/02/16 06:51:11;;;;;;;7.25;3.10;;;;;;;;;;5068796;28;20036;-61
2024/02/16 06:53:37;;;;;;;4.88;2.30;;;;;;;;;;5064302;28;20033;-61
2024/02/16 06:56:03;;;;;;;8.32;2.33;;;;;;;;;;5071906;28;20037;-61
2024/02/16 06:58:29;;;;;;;8.95;2.30;;;;;;;;;;5068740;28;20036;-62
2024/02/16 07:00:55;;;;;;;6.07;2.38;;;;;;;;;;5069778;28;20509;-62
2024/02/16 07:03:22;;;;;;;8.10;2.45;;;;;;;;;;5077053;28;20024;-62
2024/02/16 07:05:48;;;;;;;6.45;2.70;;;;;;;;;;5068505;28;20028;-61
2024/02/16 07:08:14;;;;;;;8.95;3.17;;;;;;;;;;5066091;28;20429;-62
2024/02/16 07:10:40;;;;;;;4.80;1.98;;;;;;;;;;5066986;28;20074;-60
2024/02/16 07:13:06;;;;;;;5.53;2.67;;;;;;;;;;5067855;28;20094;-62
2024/02/16 07:15:32;;;;;;;6.43;2.80;;;;;;;;;;5068005;28;20040;-62
2024/02/16 07:17:58;;;;;;;8.07;2.95;;;;;;;;;;5068458;28;20036;-61
2024/02/16 07:20:24;;;;;;;8.63;2.67;;;;;;;;;;5064982;28;20063;-61
2024/02/16 07:22:51;;;;;;;5.28;2.58;;;;;;;;;;5068176;28;20044;-62
2024/02/16 07:25:17;;;;;;;9.10;2.97;;;;;;;;;;5067762;28;20436;-60
2024/02/16 07:27:43;;;;;;;9.60;2.88;;;;;;;;;;5068713;28;20082;-62
2024/02/16 07:30:11;;;;;;;9.45;2.53;;;;;;;;;;5067899;28;20451;-62
2024/02/16 07:32:37;;;;;;;21.95;2.78;;;;;;;;;;5067483;28;20025;-62
2024/02/16 07:35:04;;;;;;;9.18;2.92;;;;;;;;;;5070738;28;20037;-61
2024/02/16 07:37:30;;;;;;;5.55;2.40;;;;;;;;;;5066940;28;20406;-62
2024/02/16 07:39:56;;;;;;;5.20;2.55;;;;;;;;;;5068512;28;20029;-61
2024/02/16 07:42:22;;;;;;;6.95;2.63;;;;;;;;;;5070571;28;20025;-61
2024/02/16 07:44:48;;;;;;;6.22;2.38;;;;;;;;;;5069729;28;20393;-61
2024/02/16 07:47:15;;;;;;;10.43;2.50;;;;;;;;;;5074971;28;20040;-62
2024/02/16 07:49:41;;;;;;;7.38;2.53;;;;;;;;;;5070421;28;20083;-62
2024/02/16 07:52:08;;;;;;;5.85;2.28;;;;;;;;;;5068951;28;20029;-63
2024/02/16 07:54:34;;;;;;;6.75;2.53;;;;;;;;;;5066060;28;20424;-62
2024/02/16 07:57:00;;;;;;;4.75;1.98;;;;;;;;;;5059867;28;20127;-62
2024/02/16 07:59:26;;;;;;;7.15;2.40;;;;;;;;;;5066599;28;20067;-63
2024/02/16 08:01:52;;;;;;;5.03;2.45;;;;;;;;;;5063782;28;20031;-62
2024/02/16 08:04:18;;;;;;;9.88;2.45;;;;;;;;;;5062435;28;20025;-62
2024/02/16 08:06:44;;;;;;;7.18;2.38;;;;;;;;;;5070178;28;20025;-63
2024/02/16 08:09:10;;;;;;;10.48;2.67;;;;;;;;;;5063025;28;20068;-62
2024/02/16 08:11:36;;;;;;;10.05;2.60;;;;;;;;;;5065836;28;20028;-61
2024/02/16 08:14:03;;;;;;;12.02;2.42;;;;;;;;;;5046979;28;20338;-62
2024/02/16 08:16:29;;;;;;;4.95;2.28;;;;;;;;;;5072572;28;20563;-62
2024/02/16 08:18:55;;;;;;;11.27;3.17;;;;;;;;;;5057882;28;20036;-62
2024/02/16 08:21:21;;;;;;;3.65;2.20;;;;;;;;;;5062728;28;20033;-61
2024/02/16 08:23:47;;;;;;;8.05;2.50;;;;;;;;;;5066368;28;20090;-59
2024/02/16 08:26:13;;;;;;;5.35;2.70;;;;;;;;;;5064877;28;20107;-63
2024/02/16 08:28:39;;;;;;;9.07;2.60;;;;;;;;;;5060325;28;20124;-63
2024/02/16 08:31:06;;;;;;;7.65;2.65;;;;;;;;;;5064481;28;20032;-61
2024/02/16 08:33:36;;;;;;;8.38;3.30;;;;;;;;;;5067419;28;20024;-62
2024/02/16 08:36:02;;;;;;;10.07;3.33;;;;;;;;;;5063371;28;20089;-61
2024/02/16 08:38:28;;;;;;;4.68;2.65;;;;;;;;;;5064457;28;20031;-62
2024/02/16 08:40:54;;;;;;;4.65;2.13;;;;;;;;;;5064635;28;20038;-62
2024/02/16 08:43:20;;;;;;;6.40;2.65;;;;;;;;;;5060536;28;20052;-62
2024/02/16 08:45:46;;;;;;;6.72;2.10;;;;;;;;;;5064482;28;20055;-61
2024/02/16 08:48:12;;;;;;;9.20;2.47;;;;;;;;;;5051437;28;20083;-62
2024/02/16 08:50:38;;;;;;;5.53;2.55;;;;;;;;;;5061410;28;20059;-62
2024/02/16 08:53:04;;;;;;;5.03;2.28;;;;;;;;;;5059489;28;20094;-62
2024/02/16 08:55:31;;;;;;;4.72;2.67;;;;;;;;;;5059309;28;20039;-61
2024/02/16 08:57:57;;;;;;;5.45;2.28;;;;;;;;;;5058361;28;20506;-62
2024/02/16 09:00:26;;;;;;;7.72;3.05;;;;;;;;;;5068773;28;20406;-62
2024/02/16 09:02:53;;;;;;;7.35;2.33;;;;;;;;;;5065681;28;20147;-62
2024/02/16 09:05:19;;;;;;;6.63;2.20;;;;;;;;;;5062508;28;20162;-61
2024/02/16 09:07:49;;;;;;;6.32;2.28;;;;;;;;;;5058215;28;20510;-63
2024/02/16 09:10:15;;;;;;;5.60;2.42;;;;;;;;;;5063682;28;20037;-62
2024/02/16 09:12:41;;;;;;;13.57;2.17;;;;;;;;;;5059698;28;20170;-62
2024/02/16 09:15:08;;;;;;;8.77;2.20;;;;;;;;;;5064579;28;20071;-63
2024/02/16 09:17:34;;;;;;;9.70;2.58;;;;;;;;;;5065062;28;20028;-64
2024/02/16 09:20:00;;;;;;;10.45;2.88;;;;;;;;;;5063359;28;20032;-64
2024/02/16 09:22:26;;;;;;;7.35;2.35;;;;;;;;;;5058171;28;20025;-63
2024/02/16 09:24:54;;;;;;;4.15;2.03;;;;;;;;;;5061566;28;20083;-64
2024/02/16 09:27:22;;;;;;;5.65;2.30;;;;;;;;;;5066963;28;20087;-61
2024/02/16 09:29:48;;;;;;;7.05;2.63;;;;;;;;;;5059219;28;20020;-63
2024/02/16 09:32:14;;;;;;;7.60;2.72;;;;;;;;;;5061851;28;20402;-62
2024/02/16 09:34:40;;;;;;;8.32;2.50;;;;;;;;;;5061119;28;20504;-62
2024/02/16 09:37:06;;;;;;;7.85;3.05;;;;;;;;;;5059612;28;20115;-61
2024/02/16 09:39:32;;;;;;;10.48;2.50;;;;;;;;;;5055408;28;20094;-61
2024/02/16 09:41:58;;;;;;;5.55;2.35;;;;;;;;;;5060198;28;20078;-62
2024/02/16 09:44:24;;;;;;;6.47;3.17;;;;;;;;;;5060277;28;20032;-60
2024/02/16 09:46:50;;;;;;;6.88;2.88;;;;;;;;;;5062955;28;20029;-62
2024/02/16 09:49:16;;;;;;;4.38;2.55;;;;;;;;;;5045461;28;20762;-61
2024/02/16 09:51:42;;;;;;;8.93;2.58;;;;;;;;;;5056784;28;20061;-63
2024/02/16 09:54:08;;;;;;;10.68;3.08;;;;;;;;;;5059226;28;20277;-62
2024/02/16 09:56:34;;;;;;;8.40;2.70;;;;;;;;;;5061635;28;20481;-63
2024/02/16 09:59:00;;;;;;;6.63;2.40;;;;;;;;;;5065898;28;20445;-63
2024/02/16 10:01:26;;;;;;;13.52;2.60;;;;;;;;;;5067795;28;20024;-63
2024/02/16 10:03:52;;;;;;;8.45;2.75;;;;;;;;;;5063770;28;20122;-62
2024/02/16 10:06:20;;;;;;;7.45;2.70;;;;;;;;;;5068426;28;20065;-63
2024/02/16 10:08:52;;;;;;;7.13;3.10;;;;;;;;;;5063892;28;20063;-63
2024/02/16 10:11:19;;;;;;;9.68;3.22;;;;;;;;;;5061924;28;20029;-63
2024/02/16 10:13:58;;;;;;;10.02;2.97;;;;;;;;;;5062231;28;20029;-62
2024/02/16 10:16:24;;;;;;;6.18;2.92;;;;;;;;;;5064686;28;20028;-62
2024/02/16 10:18:51;;;;;;;7.72;2.75;;;;;;;;;;5064095;28;20028;-62
2024/02/16 10:21:29;;;;;;;10.02;2.67;;;;;;;;;;5064887;28;20044;-63
2024/02/16 10:23:58;;;;;;;7.97;2.38;;;;;;;;;;5063652;28;20017;-62
2024/02/16 10:26:24;;;;;;;7.60;2.63;;;;;;;;;;5064179;28;20028;-62
2024/02/16 10:28:53;;;;;;;6.32;2.78;;;;;;;;;;5059497;28;20039;-64
2024/02/16 10:31:19;;;;;;;9.70;3.25;;;;;;;;;;5059002;28;20402;-63
2024/02/16 10:33:46;;;;;;;5.47;2.42;;;;;;;;;;5056957;28;20033;-63
2024/02/16 10:36:12;;;;;;;6.88;2.50;;;;;;;;;;5058517;28;20029;-63
2024/02/16 10:38:40;;;;;;;7.95;3.03;;;;;;;;;;5061079;28;20107;-61
2024/02/16 10:41:06;;;;;;;9.07;3.08;;;;;;;;;;5052815;28;20093;-62
2024/02/16 10:43:32;;;;;;;7.70;3.20;;;;;;;;;;5057772;28;20078;-62
2024/02/16 10:45:59;;;;;;;14.70;3.33;;;;;;;;;;5055399;28;20776;-62
2024/02/16 10:48:25;;;;;;;6.88;3.03;;;;;;;;;;5056934;28;20089;-63
2024/02/16 10:50:53;;;;;;;6.88;3.33;;;;;;;;;;5058587;28;20101;-63
2024/02/16 10:53:26;;;;;;;8.15;3.50;;;;;;;;;;5058606;28;20024;-62
2024/02/16 10:55:52;;;;;;;11.98;3.00;;;;;;;;;;5056583;28;20111;-62
2024/02/16 10:58:19;;;;;;;11.90;2.83;;;;;;;;;;5061181;28;20039;-60
2024/02/16 11:00:55;;;;;;;8.60;3.13;;;;;;;;;;5058593;28;20027;-63
2024/02/16 11:03:27;;;;;;;8.25;3.42;;;;;;;;;;5058515;28;20037;-65
2024/02/16 11:05:54;;;;;;;11.30;3.28;;;;;;;;;;5060226;28;20039;-66
2024/02/16 11:08:21;;;;;;;14.13;4.00;;;;;;;;;;5059605;28;20051;-64
2024/02/16 11:11:06;;;;;;;6.20;3.33;;;;;;;;;;5072141;28;20028;-64
2024/02/16 11:13:33;;;;;;;8.80;3.55;;;;;;;;;;5071408;28;20059;-64
2024/02/16 11:16:02;;;;;;;7.25;3.53;;;;;;;;;;5072215;28;21268;-64
2024/02/16 11:18:31;;;;;;;8.85;3.55;;;;;;;;;;5064065;28;20031;-65
2024/02/16 11:21:01;;;;;;;7.90;3.20;;;;;;;;;;5059155;28;20024;-63
2024/02/16 11:23:30;;;;;;;11.15;3.58;;;;;;;;;;5061860;28;20112;-62
2024/02/16 11:26:03;;;;;;;10.55;4.28;;;;;;;;;;5057984;28;20033;-63
2024/02/16 11:28:32;;;;;;;11.32;3.67;;;;;;;;;;5060441;28;20147;-63
2024/02/16 11:30:58;;;;;;;12.00;4.30;;;;;;;;;;5062094;28;20025;-61
2024/02/16 11:33:26;;;;;;;13.63;3.53;;;;;;;;;;5064686;28;20042;-63
2024/02/16 11:36:08;;;;;;;10.85;3.92;;;;;;;;;;5063285;28;20025;-65
2024/02/16 11:38:34;;;;;;;8.20;3.38;;;;;;;;;;5062847;28;20028;-64
2024/02/16 11:41:01;;;;;;;10.20;3.83;;;;;;;;;;5061550;28;20042;-63
2024/02/16 11:43:27;;;;;;;16.63;3.88;;;;;;;;;;5063868;28;20028;-65
2024/02/16 11:45:53;;;;;;;12.32;3.80;;;;;;;;;;5063797;28;20020;-65
2024/02/16 11:48:21;;;;;;;7.65;3.50;;;;;;;;;;5061725;28;20518;-64
2024/02/16 11:50:48;;;;;;;13.70;3.55;;;;;;;;;;5068161;28;20107;-65
2024/02/16 11:53:18;;;;;;;10.68;3.45;;;;;;;;;;5070949;28;20033;-64
2024/02/16 11:55:50;;;;;;;9.85;3.33;;;;;;;;;;5066977;28;20153;-63
2024/02/16 11:58:18;;;;;;;10.80;3.83;;;;;;;;;;5064157;28;20129;-65
2024/02/16 12:00:44;;;;;;;10.18;3.97;;;;;;;;;;5068534;28;20175;-62
2024/02/16 12:03:10;;;;;;;16.50;3.78;;;;;;;;;;5062679;28;20105;-64
2024/02/16 12:05:36;;;;;;;12.27;4.38;;;;;;;;;;5070109;28;20138;-65
2024/02/16 12:08:02;;;;;;;11.85;3.92;;;;;;;;;;5061160;28;20580;-64
2024/02/16 12:10:29;;;;;;;8.75;3.65;;;;;;;;;;5069248;28;20153;-63
2024/02/16 12:12:55;;;;;;;16.73;4.72;;;;;;;;;;5067826;28;20100;-65
2024/02/16 12:15:22;;;;;;;14.60;3.95;;;;;;;;;;5068550;28;20033;-65
2024/02/16 12:17:58;;;;;;;14.07;3.72;;;;;;;;;;5063165;28;20028;-64
2024/02/16 12:20:24;;;;;;;10.43;4.40;;;;;;;;;;5063556;28;20036;-64
2024/02/16 12:22:50;;;;;;;17.83;4.25;;;;;;;;;;5062220;28;20033;-64
2024/02/16 12:25:16;;;;;;;15.32;5.03;;;;;;;;;;5063518;28;20076;-65
2024/02/16 12:27:42;;;;;;;13.95;5.15;;;;;;;;;;5062274;28;20683;-65
2024/02/16 12:30:08;;;;;;;13.98;4.20;;;;;;;;;;5064429;28;20076;-63
2024/02/16 12:32:34;;;;;;;14.32;4.18;;;;;;;;;;5049344;28;20028;-65
2024/02/16 12:35:01;;;;;;;18.33;3.63;;;;;;;;;;5065785;28;20379;-63
2024/02/16 12:37:27;;;;;;;12.23;4.10;;;;;;;;;;5069797;28;20028;-66
2024/02/16 12:39:53;;;;;;;10.73;4.43;;;;;;;;;;5061005;28;20032;-64
2024/02/16 12:42:18;;;;;;;10.73;3.92;;;;;;;;;;5065707;28;20126;-64
2024/02/16 12:44:44;;;;;;;8.02;4.00;;;;;;;;;;5067987;28;20167;-64
2024/02/16 12:47:10;;;;;;;11.98;3.90;;;;;;;;;;5066799;28;20036;-64
2024/02/16 12:49:36;;;;;;;11.25;4.05;;;;;;;;;;5064277;28;20060;-64
2024/02/16 12:52:02;;;;;;;14.27;4.88;;;;;;;;;;5066279;28;20062;-64
2024/02/16 12:54:28;;;;;;;11.77;4.20;;;;;;;;;;5064312;28;20414;-64
2024/02/16 12:56:54;;;;;;;10.30;4.32;;;;;;;;;;5067379;28;20040;-64
2024/02/16 12:59:20;;;;;;;10.35;4.75;;;;;;;;;;5065903;28;20033;-64
2024/02/16 13:01:47;;;;;;;11.52;4.90;;;;;;;;;;5063881;28;20029;-65
2024/02/16 13:04:20;;;;;;;12.45;4.25;;;;;;;;;;5051396;28;20577;-65
2024/02/16 13:06:46;;;;;;;15.52;4.07;;;;;;;;;;5067105;28;20021;-65
2024/02/16 13:09:12;;;;;;;12.18;4.50;;;;;;;;;;5066493;28;20029;-67
2024/02/16 13:11:40;;;;;;;11.57;4.28;;;;;;;;;;5064444;28;20032;-65
2024/02/16 13:14:06;;;;;;;13.98;4.57;;;;;;;;;;5064273;28;20024;-64
2024/02/16 13:16:32;;;;;;;12.90;4.72;;;;;;;;;;5065980;28;20089;-65
2024/02/16 13:18:58;;;;;;;17.63;4.68;;;;;;;;;;5063199;28;20764;-64
2024/02/16 13:21:24;;;;;;;12.07;4.15;;;;;;;;;;5061561;28;20039;-64
2024/02/16 13:23:50;;;;;;;12.85;4.18;;;;;;;;;;5065203;28;20052;-64
2024/02/16 13:26:16;;;;;;;16.67;4.90;;;;;;;;;;5061934;28;20036;-64
2024/02/16 13:28:42;;;;;;;12.93;5.25;;;;;;;;;;5063984;28;20061;-63
2024/02/16 13:31:11;;;;;;;13.18;5.05;;;;;;;;;;5065696;28;20122;-64
2024/02/16 13:33:37;;;;;;;14.98;5.85;;;;;;;;;;5063187;28;20047;-64
2024/02/16 13:36:03;;;;;;;17.52;6.10;;;;;;;;;;5061253;28;20025;-67
2024/02/16 13:38:29;;;;;;;12.80;5.43;;;;;;;;;;5066331;28;20039;-61
2024/02/16 13:40:55;;;;;;;15.27;5.88;;;;;;;;;;5062968;28;20037;-61
2024/02/16 13:43:21;;;;;;;16.45;6.03;;;;;;;;;;5066004;28;20025;-64
2024/02/16 13:45:53;;;;;;;17.85;6.40;;;;;;;;;;5058626;28;20032;-64
2024/02/16 13:48:21;;;;;;;16.85;6.20;;;;;;;;;;5067113;28;20043;-62
2024/02/16 13:50:48;;;;;;;14.88;6.85;;;;;;;;;;5059392;28;20024;-64
2024/02/16 13:53:14;;;;;;;24.48;7.35;;;;;;;;;;5066137;28;20119;-65
2024/02/16 13:55:42;;;;;;;13.40;6.35;;;;;;;;;;5061553;28;20024;-64
2024/02/16 13:58:08;;;;;;;18.58;6.65;;;;;;;;;;5063264;28;20063;-64
2024/02/16 14:00:34;;;;;;;17.30;8.18;;;;;;;;;;5069687;28;20672;-64
2024/02/16 14:03:00;;;;;;;15.73;7.25;;;;;;;;;;5076350;28;20040;-64
2024/02/16 14:05:26;;;;;;;22.60;8.38;;;;;;;;;;5074030;28;20031;-64
2024/02/16 14:07:52;;;;;;;13.63;7.20;;;;;;;;;;5076335;28;20032;-64
2024/02/16 14:10:18;;;;;;;19.25;8.10;;;;;;;;;;5062252;28;20037;-64
2024/02/16 14:12:47;;;;;;;12.90;6.43;;;;;;;;;;5067450;28;20521;-64
2024/02/16 14:15:15;;;;;;;13.32;6.35;;;;;;;;;;5061967;28;20441;-64
2024/02/16 14:17:44;;;;;;;13.98;6.38;;;;;;;;;;5061378;28;20040;-64
2024/02/16 14:20:10;;;;;;;14.93;5.82;;;;;;;;;;5064410;28;20143;-64
2024/02/16 14:22:36;;;;;;;11.95;5.40;;;;;;;;;;5062650;28;20028;-64
2024/02/16 14:25:03;;;;;;;16.77;5.90;;;;;;;;;;5059325;28;20028;-63
2024/02/16 14:27:29;;;;;;;10.40;5.32;;;;;;;;;;5060589;28;20047;-62
2024/02/16 14:29:55;;;;;;;13.77;6.63;;;;;;;;;;5066222;28;20028;-62
2024/02/16 14:32:21;;;;;;;16.40;5.05;;;;;;;;;;5059698;28;20037;-63
2024/02/16 14:34:47;;;;;;;12.40;6.07;;;;;;;;;;5059775;28;20556;-64